Time;durP1;ratioP1;P1;durP2;ratioP2;P2;SDS_P1;SDS_P2;PMS_P1;PMS_P2;Temp;Humidity;BMP_temperature;BMP_pressure;BME280_temperature;BME280_humidity;BME280_pressure;Samples;Min_cycle;Max_cycle;Signal;HPM_P1;HPM_P2
2022/06/24 00:01:12;;;;;;;4.07;2.75;;;;;;;18.37;100.00;94374.16;5036298;28;20205;-62
2022/06/24 00:03:37;;;;;;;5.18;2.70;;;;;;;18.31;100.00;94374.91;5054873;28;20182;-63
2022/06/24 00:06:16;;;;;;;6.22;2.47;;;;;;;18.23;100.00;94373.25;5054040;28;20193;-64
2022/06/24 00:08:56;;;;;;;3.30;2.28;;;;;;;18.13;100.00;94377.91;5054253;28;20189;-62
2022/06/24 00:11:29;;;;;;;4.57;2.50;;;;;;;17.93;100.00;94368.38;5053819;28;20212;-62
2022/06/24 00:14:07;;;;;;;3.88;2.42;;;;;;;17.88;100.00;94381.75;5054342;28;20244;-63
2022/06/24 00:16:55;;;;;;;3.60;2.47;;;;;;;17.88;100.00;94386.09;5053739;28;20201;-58
2022/06/24 00:19:22;;;;;;;2.90;1.95;;;;;;;17.84;100.00;94401.09;5054234;28;20185;-60
2022/06/24 00:22:23;;;;;;;2.97;1.90;;;;;;;17.77;100.00;94432.88;5053784;28;20205;-60
2022/06/24 00:25:06;;;;;;;5.75;2.40;;;;;;;17.52;100.00;94412.56;4973024;28;20191;-60
2022/06/24 00:27:32;;;;;;;2.80;2.50;;;;;;;17.60;100.00;94406.53;5046895;28;20562;-64
2022/06/24 00:29:57;;;;;;;7.15;2.47;;;;;;;17.58;100.00;94400.78;5053527;28;20193;-62
2022/06/24 00:32:30;;;;;;;3.85;2.35;;;;;;;17.46;100.00;94400.41;5053530;28;20213;-60
2022/06/24 00:35:06;;;;;;;2.92;2.63;;;;;;;17.47;100.00;94404.56;5053866;28;20225;-61
2022/06/24 00:37:34;;;;;;;6.63;2.38;;;;;;;17.42;100.00;94406.06;5054108;28;20201;-61
2022/06/24 00:40:21;;;;;;;3.78;2.63;;;;;;;17.50;100.00;94417.09;5053590;28;20201;-60
2022/06/24 00:42:47;;;;;;;4.28;2.58;;;;;;;17.58;100.00;94414.44;5053680;28;20181;-60
2022/06/24 00:45:36;;;;;;;5.70;2.95;;;;;;;17.49;100.00;94407.78;5034543;28;20201;-60
2022/06/24 00:48:08;;;;;;;5.30;2.95;;;;;;;17.59;100.00;94413.44;5053359;28;20178;-60
2022/06/24 00:50:39;;;;;;;3.55;2.90;;;;;;;17.67;100.00;94412.56;5052992;28;20255;-60
2022/06/24 00:53:05;;;;;;;4.38;2.42;;;;;;;17.75;100.00;94412.47;5053580;28;20181;-60
2022/06/24 00:55:36;;;;;;;4.43;2.95;;;;;;;17.66;100.00;94410.97;5052891;28;20208;-61
2022/06/24 00:58:03;;;;;;;3.20;2.90;;;;;;;17.57;100.00;94405.13;5053201;28;20174;-61
2022/06/24 01:00:32;;;;;;;3.78;2.88;;;;;;;17.63;100.00;94407.97;5053143;28;20285;-60
2022/06/24 01:03:00;;;;;;;3.10;2.83;;;;;;;17.72;100.00;94412.81;5053241;28;20185;-62
2022/06/24 01:05:27;;;;;;;4.13;3.03;;;;;;;17.72;100.00;94412.81;5053014;28;20702;-60
2022/06/24 01:07:52;;;;;;;6.45;3.22;;;;;;;17.82;100.00;94417.69;5051946;28;20674;-59
2022/06/24 01:10:18;;;;;;;5.05;3.10;;;;;;;17.90;100.00;94415.81;5052784;28;20244;-66
2022/06/24 01:12:43;;;;;;;5.43;3.20;;;;;;;17.95;100.00;94418.66;5034863;28;20213;-63
2022/06/24 01:15:09;;;;;;;5.03;3.17;;;;;;;18.07;100.00;94429.28;5052739;28;20212;-63
2022/06/24 01:17:37;;;;;;;3.97;3.10;;;;;;;18.10;100.00;94423.78;5052908;28;20561;-63
2022/06/24 01:20:03;;;;;;;4.40;3.10;;;;;;;18.08;100.00;94423.94;5052605;28;20198;-62
2022/06/24 01:22:29;;;;;;;6.35;2.70;;;;;;;18.14;100.00;94418.06;5052796;28;20269;-60
2022/06/24 01:24:54;;;;;;;2.65;2.40;;;;;;;18.15;100.00;94419.69;5052786;28;20264;-60
2022/06/24 01:27:20;;;;;;;4.22;3.00;;;;;;;18.15;100.00;94424.81;5052594;28;20177;-60
2022/06/24 01:29:46;;;;;;;6.03;3.28;;;;;;;17.86;100.00;94414.56;5052502;28;20181;-59
2022/06/24 01:32:12;;;;;;;4.90;3.17;;;;;;;18.16;100.00;94420.47;5052330;28;20218;-61
2022/06/24 01:34:38;;;;;;;3.40;2.78;;;;;;;18.37;100.00;94421.31;5052768;28;20582;-61
2022/06/24 01:37:04;;;;;;;3.70;2.85;;;;;;;18.43;100.00;94432.66;5052793;28;20174;-60
2022/06/24 01:39:30;;;;;;;4.35;2.72;;;;;;;18.28;100.00;94414.66;5052129;28;20189;-61
2022/06/24 01:41:56;;;;;;;4.32;3.17;;;;;;;18.33;100.00;94412.34;5052043;28;20231;-61
2022/06/24 01:44:22;;;;;;;6.22;3.05;;;;;;;18.13;100.00;94403.63;5034627;28;20270;-60
2022/06/24 01:46:48;;;;;;;4.57;3.47;;;;;;;18.22;100.00;94401.75;5052441;28;20234;-61
2022/06/24 01:49:14;;;;;;;5.07;3.20;;;;;;;18.23;100.00;94400.75;5052617;28;20196;-60
2022/06/24 01:51:42;;;;;;;4.93;3.55;;;;;;;18.01;100.00;94389.63;5051944;28;20201;-60
2022/06/24 01:54:07;;;;;;;6.13;3.90;;;;;;;17.97;100.00;94397.88;5052456;28;20671;-61
2022/06/24 01:56:33;;;;;;;6.00;3.95;;;;;;;17.84;100.00;94406.25;5052313;28;20200;-60
2022/06/24 01:58:58;;;;;;;7.53;4.47;;;;;;;18.14;100.00;94396.72;5052421;28;20184;-61
2022/06/24 02:01:24;;;;;;;4.15;3.75;;;;;;;18.28;100.00;94393.28;5058811;22;20225;-61
2022/06/24 02:03:50;;;;;;;6.45;4.57;;;;;;;18.32;100.00;94385.00;5051985;28;20170;-61
2022/06/24 02:06:17;;;;;;;9.23;4.43;;;;;;;18.26;100.00;94374.66;5052444;28;20208;-60
2022/06/24 02:08:43;;;;;;;8.38;4.57;;;;;;;18.26;100.00;94369.50;5051822;28;20253;-61
2022/06/24 02:13:56;;;;;;;6.78;4.15;;;;;;;18.26;100.00;94364.38;5052220;28;20227;-59
2022/06/24 02:16:21;;;;;;;11.68;4.63;;;;;;;18.13;100.00;94362.47;5052342;28;20275;-61
2022/06/24 02:18:48;;;;;;;9.57;4.95;;;;;;;18.13;100.00;94379.66;5051518;28;20178;-59
2022/06/24 02:21:14;;;;;;;6.90;4.53;;;;;;;18.01;100.00;94376.78;5052311;28;20255;-60
2022/06/24 02:23:41;;;;;;;5.63;4.28;;;;;;;18.03;100.00;94384.31;5051900;28;20178;-61
2022/06/24 02:26:06;;;;;;;7.68;3.92;;;;;;;18.10;100.00;94385.97;5051975;28;20214;-59
2022/06/24 02:28:32;;;;;;;7.50;4.32;;;;;;;18.27;100.00;94384.78;5051928;28;20173;-60
2022/06/24 02:31:00;;;;;;;7.90;3.97;;;;;;;18.31;100.00;94380.84;5052054;28;20228;-62
2022/06/24 02:33:27;;;;;;;7.10;4.40;;;;;;;18.20;100.00;94389.03;5051582;28;20631;-61
2022/06/24 02:35:52;;;;;;;9.55;4.85;;;;;;;18.08;100.00;94393.06;5033867;28;20202;-62
2022/06/24 02:38:18;;;;;;;4.97;3.75;;;;;;;18.04;100.00;94391.06;5051883;28;20193;-61
2022/06/24 02:40:51;;;;;;;5.72;4.20;;;;;;;18.03;100.00;94397.16;5051841;28;20202;-59
2022/06/24 02:43:29;;;;;;;5.00;4.10;;;;;;;18.02;100.00;94403.28;5051821;28;20311;-60
2022/06/24 02:46:05;;;;;;;8.32;4.28;;;;;;;18.07;100.00;94399.22;5051959;28;20209;-59
2022/06/24 02:48:33;;;;;;;4.20;3.80;;;;;;;18.04;100.00;94399.56;5051504;28;20201;-61
2022/06/24 02:51:02;;;;;;;8.98;4.43;;;;;;;18.07;100.00;94395.81;5051271;28;20217;-61
2022/06/24 02:53:29;;;;;;;4.40;3.65;;;;;;;18.17;100.00;94391.19;5051643;28;20184;-61
2022/06/24 02:56:00;;;;;;;6.32;3.70;;;;;;;18.48;100.00;94396.88;5051673;28;20216;-61
2022/06/24 02:58:26;;;;;;;6.10;4.55;;;;;;;18.55;100.00;94409.78;5051713;28;20181;-60
2022/06/24 03:00:52;;;;;;;6.75;3.75;;;;;;;18.48;100.00;94396.09;5033119;28;20840;-59
2022/06/24 03:03:20;;;;;;;4.43;3.97;;;;;;;18.21;100.00;94384.69;5051402;28;20264;-59
2022/06/24 03:05:46;;;;;;;12.90;4.35;;;;;;;17.94;100.00;94375.88;5051729;28;20293;-59
2022/06/24 03:08:13;;;;;;;6.72;4.07;;;;;;;17.84;100.00;94388.25;5051422;28;20181;-60
2022/06/24 03:10:39;;;;;;;7.80;4.22;;;;;;;18.02;100.00;94400.69;5051610;28;20209;-64
2022/06/24 03:13:06;;;;;;;7.43;4.35;;;;;;;18.21;100.00;94398.38;5051335;28;20552;-61
2022/06/24 03:15:32;;;;;;;6.05;4.55;;;;;;;18.19;100.00;94408.03;5051038;28;20214;-60
2022/06/24 03:17:58;;;;;;;6.88;4.78;;;;;;;18.09;100.00;94399.00;5051044;28;20675;-61
2022/06/24 03:20:24;;;;;;;7.68;4.47;;;;;;;17.80;100.00;94399.88;5051310;28;20232;-61
2022/06/24 03:22:50;;;;;;;7.85;4.10;;;;;;;17.63;100.00;94398.47;5051287;28;20670;-61
2022/06/24 03:25:15;;;;;;;9.23;4.90;;;;;;;17.83;100.00;94398.72;5051443;28;20202;-61
2022/06/24 03:27:41;;;;;;;8.73;4.88;;;;;;;17.76;100.00;94403.78;5060574;22;20225;-64
2022/06/24 03:30:08;;;;;;;7.72;4.82;;;;;;;17.73;100.00;94393.84;5050858;28;20197;-61
2022/06/24 03:32:34;;;;;;;15.95;5.90;;;;;;;17.85;100.00;94407.84;5054570;28;20595;-62
2022/06/24 03:35:00;;;;;;;8.82;5.32;;;;;;;17.81;100.00;94404.03;5036638;28;20194;-62
2022/06/24 03:37:26;;;;;;;8.85;5.07;;;;;;;17.53;100.00;94408.25;5055096;28;20192;-63
2022/06/24 03:39:52;;;;;;;13.52;5.43;;;;;;;17.41;100.00;94415.53;5054495;28;20643;-63
2022/06/24 03:42:18;;;;;;;9.40;5.85;;;;;;;17.69;100.00;94417.53;5055080;28;20186;-63
2022/06/24 03:44:43;;;;;;;9.18;5.00;;;;;;;17.76;100.00;94414.06;5054539;28;20170;-62
2022/06/24 03:47:09;;;;;;;8.13;4.68;;;;;;;17.92;100.00;94419.00;5061446;22;20237;-63
2022/06/24 03:49:34;;;;;;;8.88;4.50;;;;;;;18.31;100.00;94409.16;5054407;28;20197;-63
2022/06/24 03:51:59;;;;;;;6.38;4.15;;;;;;;18.56;100.00;94417.34;5054138;28;20205;-64
2022/06/24 03:54:25;;;;;;;9.15;3.63;;;;;;;18.65;100.00;94436.03;5036315;28;20174;-63
2022/06/24 03:56:50;;;;;;;5.70;2.70;;;;;;;18.65;100.00;94449.72;5054484;28;20259;-64
2022/06/24 03:59:16;;;;;;;4.78;3.22;;;;;;;18.62;100.00;94451.88;5054038;28;20652;-66
2022/06/24 04:01:41;;;;;;;5.50;3.40;;;;;;;18.47;100.00;94436.47;5053995;28;20193;-62
2022/06/24 04:04:07;;;;;;;7.68;4.07;;;;;;;18.33;100.00;94406.41;5036393;28;20177;-63
2022/06/24 04:06:32;;;;;;;10.65;4.22;;;;;;;18.29;100.00;94408.53;5054538;28;20651;-63
2022/06/24 04:08:58;;;;;;;8.27;4.13;;;;;;;18.20;100.00;94395.97;5053957;28;20606;-63
2022/06/24 04:11:23;;;;;;;5.70;4.22;;;;;;;18.09;100.00;94393.88;5054268;28;20217;-63
2022/06/24 04:13:49;;;;;;;12.70;5.10;;;;;;;17.94;100.00;94390.53;5053595;28;20667;-63
2022/06/24 04:16:15;;;;;;;10.90;4.85;;;;;;;18.04;100.00;94393.63;5054355;28;20212;-62
2022/06/24 04:18:41;;;;;;;7.97;4.88;;;;;;;18.10;100.00;94403.97;5053784;28;20170;-64
2022/06/24 04:21:17;;;;;;;5.03;3.95;;;;;;;18.27;100.00;94405.34;5035757;28;20691;-63
2022/06/24 04:23:43;;;;;;;7.85;5.15;;;;;;;18.34;100.00;94410.56;5053760;28;20165;-64
2022/06/24 04:26:09;;;;;;;10.65;5.40;;;;;;;18.25;100.00;94406.50;5054104;28;20213;-63
2022/06/24 04:28:35;;;;;;;10.55;5.47;;;;;;;18.29;100.00;94421.41;5053486;28;20182;-61
2022/06/24 04:31:01;;;;;;;8.90;5.07;;;;;;;18.41;100.00;94422.53;5053700;28;20220;-62
2022/06/24 04:33:27;;;;;;;8.00;6.13;;;;;;;18.49;100.00;94431.13;5053426;28;20193;-64
2022/06/24 04:35:53;;;;;;;9.85;6.32;;;;;;;18.36;100.00;94429.97;5055005;23;20256;-64
2022/06/24 04:38:19;;;;;;;7.53;5.80;;;;;;;18.35;100.00;94428.41;5073505;28;20175;-63
2022/06/24 04:40:44;;;;;;;5.80;4.90;;;;;;;18.56;100.00;94435.38;5073272;28;20212;-63
2022/06/24 04:43:10;;;;;;;8.70;5.32;;;;;;;18.68;100.00;94433.91;5073075;28;20218;-62
2022/06/24 04:45:36;;;;;;;6.93;5.05;;;;;;;18.72;100.00;94449.78;5073372;28;20201;-63
2022/06/24 04:48:03;;;;;;;10.80;5.30;;;;;;;18.82;100.00;94452.84;5055212;28;20184;-63
2022/06/24 04:50:28;;;;;;;10.63;5.30;;;;;;;18.89;100.00;94454.50;5073214;28;20201;-64
2022/06/24 04:52:54;;;;;;;8.95;6.25;;;;;;;19.13;100.00;94453.28;5073137;28;20227;-63
2022/06/24 04:55:20;;;;;;;11.43;5.88;;;;;;;19.08;100.00;94446.16;5072887;28;20283;-63
2022/06/24 04:57:47;;;;;;;9.48;5.70;;;;;;;19.13;100.00;94437.84;5073165;28;20205;-62
2022/06/24 05:00:13;;;;;;;11.02;7.50;;;;;;;19.09;100.00;94449.50;5073151;28;20205;-60
2022/06/24 05:02:41;;;;;;;10.57;6.35;;;;;;;19.27;100.00;94457.56;5072845;28;20207;-60
2022/06/24 05:05:09;;;;;;;10.15;6.65;;;;;;;19.58;100.00;94439.97;5072843;28;20698;-59
2022/06/24 05:07:35;;;;;;;11.73;6.43;;;;;;;19.59;100.00;94454.47;5054848;28;20230;-60
2022/06/24 05:10:01;;;;;;;16.33;6.40;;;;;;;19.66;100.00;94457.88;5072704;28;20670;-61
2022/06/24 05:12:27;;;;;;;11.70;5.95;;;;;;;19.80;100.00;94479.38;5072387;28;20201;-59
2022/06/24 05:14:53;;;;;;;10.27;6.70;;;;;;;19.85;100.00;94485.59;5072319;28;20185;-61
2022/06/24 05:17:18;;;;;;;10.63;5.75;;;;;;;19.72;100.00;94472.59;5072653;28;20222;-61
2022/06/24 05:19:44;;;;;;;9.63;6.85;;;;;;;19.57;100.00;94464.19;5072599;28;20184;-61
2022/06/24 05:22:09;;;;;;;10.32;6.05;;;;;;;19.65;100.00;94476.13;5072133;28;20606;-61
2022/06/24 05:24:35;;;;;;;11.45;7.38;;;;;;;19.56;100.00;94475.47;5071180;28;20581;-61
2022/06/24 05:27:01;;;;;;;9.80;6.82;;;;;;;19.33;100.00;94462.03;5071617;28;20204;-61
2022/06/24 05:29:27;;;;;;;9.95;7.57;;;;;;;19.32;100.00;94464.75;5072293;28;20173;-61
2022/06/24 05:31:52;;;;;;;13.52;7.05;;;;;;;19.49;100.00;94476.41;5072251;28;20205;-61
2022/06/24 05:34:17;;;;;;;15.20;7.50;;;;;;;19.41;100.00;94473.97;5072086;28;20173;-61
2022/06/24 05:36:43;;;;;;;12.27;7.32;;;;;;;19.49;100.00;94484.97;5072187;28;20213;-62
2022/06/24 05:39:09;;;;;;;14.52;7.47;;;;;;;19.74;100.00;94499.00;5072498;28;20181;-62
2022/06/24 05:41:38;;;;;;;11.50;6.90;;;;;;;19.90;100.00;94503.03;5072183;28;20200;-61
2022/06/24 05:44:04;;;;;;;10.65;7.47;;;;;;;20.24;100.00;94533.25;5072081;28;20675;-60
2022/06/24 05:46:29;;;;;;;11.35;7.20;;;;;;;20.02;100.00;94493.78;5072535;28;20287;-60
2022/06/24 05:48:55;;;;;;;10.48;7.47;;;;;;;19.77;100.00;94472.84;5072075;28;20697;-61
2022/06/24 05:51:21;;;;;;;13.60;8.85;;;;;;;19.47;100.00;94465.50;5072484;28;20220;-60
2022/06/24 05:56:31;;;;;;;14.90;9.85;;;;;;;19.31;100.00;94476.84;5072846;28;20230;-59
2022/06/24 05:58:57;;;;;;;9.80;8.63;;;;;;;19.29;100.00;94481.38;5072174;28;20181;-59
2022/06/24 06:01:24;;;;;;;13.10;8.82;;;;;;;19.28;100.00;94490.91;5072311;28;20662;-62
2022/06/24 06:03:50;;;;;;;10.60;7.80;;;;;;;19.30;100.00;94503.59;5072067;28;20724;-63
2022/06/24 06:06:16;;;;;;;10.55;7.10;;;;;;;19.21;100.00;94512.44;5072317;28;20228;-63
2022/06/24 06:08:42;;;;;;;14.35;8.70;;;;;;;19.19;100.00;94499.75;5071827;28;20230;-60
2022/06/24 06:11:18;;;;;;;9.93;7.18;;;;;;;19.50;100.00;94499.44;5072100;28;20635;-63
2022/06/24 06:13:45;;;;;;;7.78;6.78;;;;;;;19.52;100.00;94497.47;5071810;28;20184;-63
2022/06/24 06:16:11;;;;;;;8.32;7.53;;;;;;;19.56;100.00;94487.56;5072180;28;20288;-59
2022/06/24 06:18:38;;;;;;;8.32;6.55;;;;;;;19.63;100.00;94484.06;5053768;28;20189;-62
2022/06/24 06:21:06;;;;;;;9.85;6.50;;;;;;;19.77;100.00;94478.00;5072111;28;20197;-63
2022/06/24 06:23:33;;;;;;;8.68;6.53;;;;;;;19.85;100.00;94477.03;5053687;28;20181;-59
2022/06/24 06:26:00;;;;;;;12.30;6.53;;;;;;;19.69;100.00;94460.09;5071959;28;20196;-61
2022/06/24 06:28:26;;;;;;;9.98;5.82;;;;;;;19.70;100.00;94469.41;5053933;28;20330;-60
2022/06/24 06:30:52;;;;;;;7.35;5.78;;;;;;;19.64;100.00;94467.56;5071673;28;20215;-58
2022/06/24 06:33:18;;;;;;;10.05;6.43;;;;;;;19.63;100.00;94466.00;5071623;28;20173;-60
2022/06/24 06:35:45;;;;;;;9.35;6.30;;;;;;;19.73;100.00;94476.78;5053332;28;20299;-60
2022/06/24 06:38:11;;;;;;;8.48;6.35;;;;;;;19.76;100.00;94466.06;5053340;28;20184;-60
2022/06/24 06:40:38;;;;;;;9.85;6.18;;;;;;;19.96;100.00;94474.69;5071681;28;20207;-59
2022/06/24 06:43:08;;;;;;;13.88;6.47;;;;;;;19.92;100.00;94470.09;5071561;28;20200;-61
2022/06/24 06:45:36;;;;;;;9.93;6.45;;;;;;;20.06;100.00;94475.16;5071799;28;20212;-59
2022/06/24 06:48:01;;;;;;;11.73;6.22;;;;;;;20.17;100.00;94467.84;5053393;28;20177;-61
2022/06/24 06:50:27;;;;;;;14.30;7.45;;;;;;;20.28;100.00;94473.28;5071439;28;20235;-58
2022/06/24 06:52:53;;;;;;;7.28;6.38;;;;;;;20.38;100.00;94483.25;5071507;28;20581;-60
2022/06/24 06:55:19;;;;;;;6.80;4.97;;;;;;;20.52;100.00;94500.41;5071728;28;20236;-59
2022/06/24 06:57:46;;;;;;;14.05;6.03;;;;;;;20.35;100.00;94486.22;5071244;28;20201;-59
2022/06/24 07:00:14;;;;;;;6.90;6.15;;;;;;;20.35;100.00;94479.28;5071499;28;20208;-61
2022/06/24 07:02:40;;;;;;;10.38;8.23;;;;;;;20.36;100.00;94482.66;5071223;28;20176;-61
2022/06/24 07:05:07;;;;;;;12.38;7.43;;;;;;;20.44;100.00;94478.09;5070980;28;20578;-60
2022/06/24 07:07:33;;;;;;;9.73;6.88;;;;;;;20.70;100.00;94482.56;5075320;28;20199;-61
2022/06/24 07:09:58;;;;;;;9.38;5.20;;;;;;;20.78;99.94;94516.78;5075096;28;20662;-61
2022/06/24 07:12:24;;;;;;;7.82;5.63;;;;;;;20.87;99.85;94501.84;5074940;28;20207;-63
2022/06/24 07:14:50;;;;;;;4.93;3.95;;;;;;;20.91;97.84;94510.81;5074880;28;20272;-63
2022/06/24 07:17:16;;;;;;;7.13;4.82;;;;;;;21.02;95.95;94522.41;5056994;28;20276;-64
2022/06/24 07:19:42;;;;;;;5.97;5.38;;;;;;;20.98;97.00;94503.88;5074846;28;20196;-59
2022/06/24 07:22:08;;;;;;;7.68;4.90;;;;;;;21.11;98.18;94485.81;5057101;28;20188;-60
2022/06/24 07:24:33;;;;;;;4.60;4.10;;;;;;;21.28;95.42;94523.22;5075056;28;20185;-60
2022/06/24 07:27:02;;;;;;;8.00;4.43;;;;;;;21.20;94.76;94520.03;5074951;28;20205;-60
2022/06/24 07:29:28;;;;;;;4.85;3.90;;;;;;;21.25;95.34;94505.50;5074800;28;20173;-63
2022/06/24 07:31:53;;;;;;;5.07;4.30;;;;;;;21.39;93.57;94532.97;5074713;28;20212;-59
2022/06/24 07:34:19;;;;;;;5.72;4.07;;;;;;;21.48;93.64;94518.88;5074577;28;20567;-60
2022/06/24 07:36:44;;;;;;;14.25;12.05;;;;;;;21.93;92.66;94537.97;5056416;28;20620;-63
2022/06/24 07:39:10;;;;;;;6.40;3.83;;;;;;;21.98;91.94;94530.38;5074563;28;20177;-65
2022/06/24 07:41:35;;;;;;;6.57;3.92;;;;;;;22.09;90.71;94537.53;5074388;28;20208;-63
2022/06/24 07:44:01;;;;;;;8.10;4.50;;;;;;;22.22;90.62;94539.31;5056458;28;20177;-62
2022/06/24 07:46:27;;;;;;;11.68;4.88;;;;;;;22.09;87.02;94571.19;5056646;28;20212;-64
2022/06/24 07:48:53;;;;;;;8.20;4.05;;;;;;;22.24;86.63;94573.56;5074559;28;20242;-62
2022/06/24 07:51:19;;;;;;;6.45;4.28;;;;;;;22.43;86.68;94562.34;5074058;28;20212;-63
2022/06/24 07:53:46;;;;;;;7.15;4.22;;;;;;;22.49;85.54;94571.91;5074272;28;20192;-63
2022/06/24 07:58:57;;;;;;;6.78;4.20;;;;;;;22.69;86.91;94541.53;5074684;28;20167;-59
2022/06/24 08:01:23;;;;;;;11.57;4.85;;;;;;;23.28;87.45;94521.25;5074431;28;20280;-63
2022/06/24 08:03:49;;;;;;;8.68;4.18;;;;;;;23.27;83.36;94571.53;5074040;28;20183;-63
2022/06/24 08:06:14;;;;;;;6.80;4.20;;;;;;;23.55;84.94;94547.03;5074309;28;20263;-60
2022/06/24 08:08:40;;;;;;;6.93;4.32;;;;;;;23.77;82.19;94587.22;5074211;28;20180;-60
2022/06/24 08:11:06;;;;;;;4.47;3.90;;;;;;;23.73;81.66;94594.63;5074200;28;20212;-63
2022/06/24 08:13:32;;;;;;;10.30;4.57;;;;;;;23.62;80.09;94603.09;5073848;28;20207;-60
2022/06/24 08:15:58;;;;;;;9.38;4.43;;;;;;;23.45;82.13;94559.69;5074052;28;20205;-60
2022/06/24 08:18:23;;;;;;;7.28;4.47;;;;;;;23.24;82.30;94551.22;5073594;28;20208;-60
2022/06/24 08:20:49;;;;;;;7.25;5.88;;;;;;;23.02;81.68;94570.72;5074200;28;20295;-61
2022/06/24 08:23:15;;;;;;;6.85;4.57;;;;;;;22.72;80.24;94590.41;5073728;28;20177;-61
2022/06/24 08:25:40;;;;;;;5.32;4.28;;;;;;;22.34;79.91;94572.13;5073977;28;20220;-62
2022/06/24 08:28:06;;;;;;;4.35;3.95;;;;;;;22.59;80.10;94569.69;5055540;28;20225;-60
2022/06/24 08:30:31;;;;;;;5.00;3.85;;;;;;;22.90;77.41;94613.84;5073859;28;20197;-65
2022/06/24 08:32:57;;;;;;;7.18;3.83;;;;;;;23.04;75.36;94636.13;5055763;28;20208;-61
2022/06/24 08:35:22;;;;;;;7.38;4.28;;;;;;;23.27;78.04;94581.16;5073700;28;20201;-60
2022/06/24 08:37:48;;;;;;;5.60;3.78;;;;;;;23.62;79.21;94565.94;5073540;28;20181;-60
2022/06/24 08:40:15;;;;;;;6.45;3.95;;;;;;;23.63;77.42;94609.09;5073668;28;20201;-62
2022/06/24 08:42:43;;;;;;;5.95;4.55;;;;;;;23.37;78.23;94583.31;5055396;28;20654;-64
2022/06/24 08:45:12;;;;;;;7.38;4.28;;;;;;;23.31;77.45;94595.28;5073425;28;20269;-62
2022/06/24 08:47:38;;;;;;;6.15;4.70;;;;;;;23.60;78.95;94573.94;5055283;28;20180;-63
2022/06/24 08:50:07;;;;;;;5.90;4.25;;;;;;;23.88;75.63;94617.66;5073275;28;20668;-63
2022/06/24 08:52:33;;;;;;;6.90;4.20;;;;;;;24.08;73.88;94659.91;5073161;28;20196;-63
2022/06/24 08:55:00;;;;;;;4.47;3.10;;;;;;;24.39;68.77;94724.81;5055177;28;20204;-63
2022/06/24 08:57:25;;;;;;;6.57;4.65;;;;;;;24.33;67.98;94717.88;5072972;28;20216;-60
2022/06/24 08:59:51;;;;;;;7.70;4.65;;;;;;;24.73;67.32;94729.53;5073375;28;20223;-61
2022/06/24 09:02:18;;;;;;;5.47;3.92;;;;;;;24.81;71.79;94624.41;5055100;28;20181;-60
2022/06/24 09:04:44;;;;;;;8.65;4.00;;;;;;;24.85;70.53;94649.00;5072861;28;20277;-59
2022/06/24 09:07:36;;;;;;;5.85;3.65;;;;;;;24.92;70.85;94627.13;5073122;28;20180;-60
2022/06/24 09:10:12;;;;;;;6.82;3.30;;;;;;;24.65;65.81;94729.78;5069074;28;20220;-63
2022/06/24 09:12:46;;;;;;;5.25;3.38;;;;;;;24.94;64.97;94730.94;5072719;28;20200;-60
2022/06/24 09:15:13;;;;;;;5.00;3.67;;;;;;;24.90;64.35;94721.97;5072837;28;20630;-60
2022/06/24 09:17:39;;;;;;;6.75;3.72;;;;;;;24.95;66.63;94651.88;5072818;28;20169;-60
2022/06/24 09:20:18;;;;;;;5.60;4.05;;;;;;;25.11;68.52;94614.84;5072616;28;20680;-60
2022/06/24 09:22:44;;;;;;;5.63;3.28;;;;;;;25.18;66.57;94652.00;5054449;28;20545;-60
2022/06/24 09:25:09;;;;;;;5.75;3.35;;;;;;;25.20;69.95;94581.50;5072258;28;20259;-60
2022/06/24 09:27:41;;;;;;;4.40;3.88;;;;;;;25.46;68.36;94618.41;5072300;28;20234;-60
2022/06/24 09:30:07;;;;;;;6.43;3.65;;;;;;;25.48;65.35;94678.09;5072029;28;20197;-60
2022/06/24 09:32:33;;;;;;;4.15;2.17;;;;;;;25.71;64.33;94704.22;5072428;28;20209;-60
2022/06/24 09:35:04;;;;;;;4.95;2.95;;;;;;;26.00;63.58;94708.59;5072264;28;20294;-62
2022/06/24 09:37:38;;;;;;;9.77;3.30;;;;;;;25.69;61.75;94758.34;5072648;28;20591;-61
2022/06/24 09:40:31;;;;;;;4.70;2.40;;;;;;;25.50;61.02;94744.56;5072112;28;20209;-60
2022/06/24 09:43:02;;;;;;;6.65;2.85;;;;;;;25.26;62.27;94705.56;5069029;28;20188;-64
2022/06/24 09:45:48;;;;;;;3.22;2.92;;;;;;;25.39;63.47;94682.75;5054024;28;20281;-64
2022/06/24 09:48:32;;;;;;;4.78;2.58;;;;;;;25.17;63.59;94681.63;5072041;28;20227;-63
2022/06/24 09:51:03;;;;;;;5.85;2.85;;;;;;;25.11;67.14;94601.06;5072362;28;20292;-62
2022/06/24 09:53:37;;;;;;;4.85;2.40;;;;;;;25.00;66.57;94610.41;5054368;28;20260;-64
2022/06/24 09:56:09;;;;;;;3.60;3.00;;;;;;;25.17;68.51;94561.16;5054263;28;20208;-61
2022/06/24 09:58:36;;;;;;;4.45;2.75;;;;;;;24.82;66.04;94632.03;5071982;28;20170;-60
2022/06/24 10:01:02;;;;;;;7.82;2.95;;;;;;;24.97;61.42;94735.69;5072328;28;20211;-61
2022/06/24 10:03:28;;;;;;;4.70;2.40;;;;;;;25.22;62.28;94702.63;5072026;28;20192;-61
2022/06/24 10:05:59;;;;;;;2.97;2.33;;;;;;;25.74;63.70;94675.13;5072182;28;20209;-61
2022/06/24 10:08:29;;;;;;;3.17;2.38;;;;;;;25.45;61.36;94715.00;5071963;28;20165;-62
2022/06/24 10:10:56;;;;;;;4.32;2.72;;;;;;;25.70;61.62;94713.84;5072004;28;20205;-61
2022/06/24 10:13:30;;;;;;;3.30;2.63;;;;;;;25.85;63.70;94657.94;5071733;28;20540;-60
2022/06/24 10:15:57;;;;;;;3.15;2.38;;;;;;;25.86;62.08;94696.78;5072284;28;20228;-61
2022/06/24 10:18:31;;;;;;;3.22;2.33;;;;;;;25.57;61.11;94721.81;5071933;28;20185;-61
2022/06/24 10:20:59;;;;;;;4.97;2.22;;;;;;;25.56;59.65;94759.31;5072215;28;20207;-61
2022/06/24 10:23:37;;;;;;;2.30;2.10;;;;;;;26.13;57.62;94823.16;5072031;28;20257;-61
2022/06/24 10:26:25;;;;;;;13.50;3.30;;;;;;;26.93;57.44;94792.25;5072028;28;20291;-61
2022/06/24 10:28:59;;;;;;;6.30;2.10;;;;;;;26.79;54.60;94832.63;5071883;28;20172;-61
2022/06/24 10:31:48;;;;;;;2.65;1.63;;;;;;;26.89;51.30;94885.88;5054079;28;20297;-60
2022/06/24 10:34:22;;;;;;;4.90;2.10;;;;;;;27.28;49.51;94924.41;5071456;28;20154;-60
2022/06/24 10:36:49;;;;;;;2.10;1.90;;;;;;;27.58;51.26;94859.00;5071749;28;20261;-60
2022/06/24 10:39:17;;;;;;;3.30;2.20;;;;;;;27.63;49.85;94874.00;5071719;28;20169;-62
2022/06/24 10:41:43;;;;;;;3.53;1.80;;;;;;;27.88;48.95;94896.22;5075860;28;20232;-61
2022/06/24 10:44:22;;;;;;;9.38;2.10;;;;;;;28.43;48.91;94896.56;5075850;28;20638;-63
2022/06/24 10:47:08;;;;;;;3.55;2.03;;;;;;;28.82;46.34;94955.94;5057458;28;20215;-63
2022/06/24 10:49:55;;;;;;;2.28;1.90;;;;;;;28.97;46.32;94931.81;5075599;28;20531;-63
2022/06/24 10:52:43;;;;;;;2.63;1.90;;;;;;;28.69;46.91;94892.59;5075252;28;20261;-63
2022/06/24 10:55:14;;;;;;;3.95;2.22;;;;;;;29.43;45.95;94894.09;5057404;28;20660;-60
2022/06/24 10:57:40;;;;;;;3.47;1.70;;;;;;;29.08;47.79;94843.75;5075152;28;20574;-60
2022/06/24 11:00:17;;;;;;;2.55;1.90;;;;;;;28.87;46.17;94895.00;5075018;28;20201;-60
2022/06/24 11:02:44;;;;;;;3.22;1.95;;;;;;;29.17;44.84;94923.56;5075402;28;20179;-60
2022/06/24 11:05:23;;;;;;;2.38;2.17;;;;;;;29.70;47.69;94814.50;5075549;28;20224;-60
2022/06/24 11:07:49;;;;;;;2.00;1.90;;;;;;;29.82;49.39;94757.53;5075456;28;20177;-60
2022/06/24 11:10:23;;;;;;;2.17;2.08;;;;;;;29.51;47.83;94822.91;5075353;28;20272;-60
2022/06/24 11:12:52;;;;;;;3.13;1.90;;;;;;;29.47;44.38;94916.16;5075151;28;20239;-59
2022/06/24 11:15:18;;;;;;;5.22;2.15;;;;;;;28.97;43.89;94901.19;5074932;28;20232;-60
2022/06/24 11:17:43;;;;;;;4.18;2.03;;;;;;;28.64;44.93;94866.34;5074777;28;20208;-61
2022/06/24 11:20:11;;;;;;;2.03;1.63;;;;;;;28.61;47.84;94776.00;5074955;28;20208;-60
2022/06/24 11:22:43;;;;;;;2.55;2.25;;;;;;;28.43;49.84;94700.34;5074951;28;20252;-61
2022/06/24 11:25:12;;;;;;;6.00;2.80;;;;;;;28.15;51.69;94667.22;5074869;28;20197;-60
2022/06/24 11:27:37;;;;;;;3.88;2.10;;;;;;;27.87;51.98;94667.25;5074964;28;20242;-60
2022/06/24 11:30:04;;;;;;;4.47;2.53;;;;;;;26.81;52.13;94656.56;5074823;28;20197;-61
2022/06/24 11:32:50;;;;;;;3.15;2.42;;;;;;;26.43;52.31;94653.59;5074875;28;20212;-60
2022/06/24 11:35:19;;;;;;;5.15;2.42;;;;;;;26.08;53.33;94621.53;5074548;28;20692;-60
2022/06/24 11:37:45;;;;;;;3.38;2.53;;;;;;;26.56;51.92;94669.03;5074720;28;20256;-60
2022/06/24 11:40:19;;;;;;;3.72;2.28;;;;;;;27.32;50.45;94703.56;5074800;28;20638;-61